Airfield :
LOGIN :

Register | Disclaimer

   EN    FR    IT 

 










Legend :    VFR   Marginal VFR   IFR   Intensive IFR   Very Intensive IFR
Visi :
Ceiling :
>= 8 km
>= 3000ft
5 to 8 km
1000 to 3000 ft
1500m to 5 km
500 to 1000 ft
800 to 1500m
200 to 500 ft
< 800m
< 200 ft
Symbols :   Thunderstorms  Fog  Heavy snow  Heavy precipitations  Wind > 20 kt
SIGMETs :     Misc.  Thunderstorms  Icing  Turbulence  Mountain Waves  Volcanic Ashes







- Airport Elevation : 100 ft


EBDT - Schaffen

CURRENT METAR :
  • 211155Z 33015KT 9999 SCT045 16/05 Q1022 BLU BLU

EXPIRED METARs :
  • 211125Z 32013KT 9999 SCT043 18/07 Q1022 BLU BLU
  • 211055Z 32012KT 9999 SCT040 16/06 Q1021 BLU BLU
  • 211025Z 31013KT 9999 FEW038 17/07 Q1021 BLU BLU
  • 210955Z 31014KT 9999 FEW032 18/05 Q1021 BLU BLU
  • 210925Z 31018KT 9999 FEW032 17/05 Q1020 BLU BLU
  • 210924Z 31018KT 9999 FEW032 17/05 Q1020 BLU BLU

TAF TAF EBDT
Valid from the 21 at 10:00 until the 21 at 19:00 UTC


210841Z 2110/2119 30012G18KT 9999 FEW023 SCT035
TEMPO 2110/2119 31016G23KT
No reported NOTAMs for that airfield.



MET'MAP, your aeronautical weather chart ! - Copyright ORBIFLY December 2007 - Disclaimer

ORBIFLY MET'MAP TEAM :

Programming & Development : Alexandra Zaïnal
Concept & Development : Baudouin d'Aumeries
Co-Development & Prog : Marc-Olivier Méhu
Technical & hardware support : Manuel Goepfert

Contact : metmap@orbifly.com




SOURCES & CREDITS :

   NOAA